createdAt,value
2023-05-07T00:01:00.593Z,1.63
2023-05-07T00:03:47.035Z,1.50
2023-05-07T00:06:34.180Z,1.30
2023-05-07T00:09:20.093Z,1.67
2023-05-07T00:12:09.938Z,1.65
2023-05-07T00:14:56.962Z,1.98
2023-05-07T00:17:42.985Z,1.90
2023-05-07T00:20:29.261Z,1.60
2023-05-07T00:23:15.892Z,1.77
2023-05-07T00:26:05.645Z,1.77
2023-05-07T00:28:51.886Z,1.70
2023-05-07T00:31:38.178Z,1.40
2023-05-07T00:34:25.471Z,1.95
2023-05-07T00:37:13.472Z,1.92
2023-05-07T00:40:00.662Z,1.80
2023-05-07T00:42:49.433Z,1.38
2023-05-07T00:45:36.185Z,1.30
2023-05-07T00:48:25.534Z,1.40
2023-05-07T00:51:12.708Z,1.65
2023-05-07T00:53:58.842Z,1.60
2023-05-07T00:56:46.329Z,1.75
2023-05-07T00:59:34.893Z,1.70
2023-05-07T01:02:22.184Z,1.70
2023-05-07T01:05:13.138Z,1.60
2023-05-07T01:08:00.534Z,1.60
2023-05-07T01:10:47.765Z,1.58
2023-05-07T01:13:35.793Z,1.55
2023-05-07T01:16:22.850Z,1.77
2023-05-07T01:19:14.559Z,1.35
2023-05-07T01:22:12.648Z,1.50
2023-05-07T01:25:09.562Z,1.80
2023-05-07T01:28:03.864Z,1.55
2023-05-07T01:31:03.828Z,1.42
2023-05-07T01:33:52.822Z,1.48
2023-05-07T01:36:41.700Z,1.70
2023-05-07T01:39:30.231Z,1.63
2023-05-07T01:42:17.054Z,1.70
2023-05-07T01:45:07.150Z,1.60
2023-05-07T01:47:56.839Z,2.00
2023-05-07T01:50:45.022Z,1.85
2023-05-07T01:53:38.107Z,1.90
2023-05-07T01:56:26.798Z,1.92
2023-05-07T01:59:14.942Z,1.63
2023-05-07T02:02:01.768Z,1.58
2023-05-07T02:04:47.978Z,2.10
2023-05-07T02:07:35.441Z,1.80
2023-05-07T02:10:22.196Z,1.75
2023-05-07T02:13:08.432Z,1.65
2023-05-07T02:15:55.710Z,2.13
2023-05-07T02:18:43.426Z,1.60
2023-05-07T02:21:31.540Z,2.03
2023-05-07T02:24:17.335Z,2.03
2023-05-07T02:27:04.632Z,2.35
2023-05-07T02:29:50.557Z,2.22
2023-05-07T02:32:36.370Z,1.58
2023-05-07T02:35:22.230Z,1.80
2023-05-07T02:38:08.427Z,1.73
2023-05-07T02:40:55.006Z,1.75
2023-05-07T02:43:41.444Z,1.92
2023-05-07T02:46:27.375Z,1.50
2023-05-07T02:49:19.979Z,1.65
2023-05-07T02:52:07.645Z,2.00
2023-05-07T02:54:53.604Z,1.98
2023-05-07T02:57:39.373Z,1.70
2023-05-07T03:00:26.163Z,1.73
2023-05-07T03:03:22.828Z,1.90
2023-05-07T03:06:09.134Z,1.45
2023-05-07T03:08:54.829Z,1.55
2023-05-07T03:11:41.141Z,2.00
2023-05-07T03:14:27.103Z,1.90
2023-05-07T03:17:13.176Z,1.63
2023-05-07T03:19:58.886Z,2.10
2023-05-07T03:22:44.651Z,2.03
2023-05-07T03:25:34.641Z,1.98
2023-05-07T03:28:20.508Z,1.67
2023-05-07T03:31:13.082Z,2.38
2023-05-07T03:33:59.897Z,1.70
2023-05-07T03:36:46.098Z,2.05
2023-05-07T03:39:33.656Z,1.85
2023-05-07T03:42:20.526Z,1.77
2023-05-07T03:45:10.354Z,2.00
2023-05-07T03:47:58.708Z,1.65
2023-05-07T03:50:44.831Z,2.00
2023-05-07T03:53:30.724Z,1.90
2023-05-07T03:56:19.123Z,2.10
2023-05-07T03:59:06.089Z,1.92
2023-05-07T04:01:52.119Z,1.60
2023-05-07T04:04:41.005Z,1.65
2023-05-07T04:07:27.745Z,1.70
2023-05-07T04:10:14.655Z,1.73
2023-05-07T04:13:03.305Z,2.10
2023-05-07T04:15:50.181Z,2.05
2023-05-07T04:18:38.200Z,1.77
2023-05-07T04:21:24.905Z,1.90
2023-05-07T04:24:11.586Z,2.03
2023-05-07T04:27:00.138Z,2.00
2023-05-07T04:29:48.448Z,2.10
2023-05-07T04:32:37.660Z,2.03
2023-05-07T04:35:25.482Z,2.63
2023-05-07T04:38:12.262Z,2.25
2023-05-07T04:41:04.399Z,1.75
2023-05-07T04:43:50.824Z,2.13
2023-05-07T04:46:38.994Z,1.80
2023-05-07T04:49:25.273Z,2.10
2023-05-07T04:52:13.566Z,1.67
2023-05-07T04:55:03.548Z,1.98
2023-05-07T04:57:57.581Z,1.95
2023-05-07T05:00:45.090Z,2.00
2023-05-07T05:03:31.697Z,2.20
2023-05-07T05:06:18.024Z,2.20
2023-05-07T05:09:06.506Z,1.73
2023-05-07T05:11:57.433Z,1.73
2023-05-07T05:14:46.211Z,1.85
2023-05-07T05:17:32.202Z,2.22
2023-05-07T05:20:18.617Z,2.55
2023-05-07T05:23:09.310Z,1.98
2023-05-07T05:25:59.784Z,2.38
2023-05-07T05:28:48.924Z,2.10
2023-05-07T05:31:37.489Z,2.50
2023-05-07T05:34:27.674Z,2.20
2023-05-07T05:37:14.150Z,1.92
2023-05-07T05:40:03.677Z,2.00
2023-05-07T05:48:55.732Z,1.77
2023-05-07T05:58:26.389Z,1.80
2023-05-07T06:03:44.097Z,2.28
2023-05-07T06:05:46.069Z,2.33
2023-05-07T06:13:07.503Z,2.42
2023-05-07T06:15:55.466Z,2.38
2023-05-07T06:18:44.203Z,2.10
2023-05-07T06:21:30.200Z,2.55
2023-05-07T06:24:17.139Z,2.45
2023-05-07T06:27:06.202Z,2.08
2023-05-07T06:30:01.983Z,2.33
2023-05-07T06:32:49.214Z,2.33
2023-05-07T06:35:35.833Z,2.88
2023-05-07T06:38:24.720Z,2.53
2023-05-07T06:41:11.133Z,2.30
2023-05-07T06:43:58.433Z,2.70
2023-05-07T06:46:54.052Z,2.65
2023-05-07T06:49:47.656Z,2.78
2023-05-07T06:52:37.379Z,3.63
2023-05-07T06:55:27.290Z,3.13
2023-05-07T07:01:03.506Z,2.67
2023-05-07T07:03:52.822Z,2.80
2023-05-07T07:06:40.957Z,2.88
2023-05-07T07:09:30.712Z,3.03
2023-05-07T07:12:21.215Z,3.27
2023-05-07T07:15:11.673Z,3.47
2023-05-07T07:17:58.718Z,2.70
2023-05-07T07:21:00.594Z,3.22
2023-05-07T07:23:47.142Z,3.53
2023-05-07T07:26:34.801Z,3.40
2023-05-07T07:29:21.599Z,3.78
2023-05-07T07:32:10.084Z,3.45
2023-05-07T07:34:56.759Z,3.40
2023-05-07T07:37:42.910Z,4.18
2023-05-07T07:40:34.952Z,4.28
2023-05-07T07:43:27.741Z,3.75
2023-05-07T07:46:40.632Z,3.22
2023-05-07T07:49:35.542Z,3.13
2023-05-07T07:52:30.605Z,3.70
2023-05-07T07:55:32.694Z,3.80
2023-05-07T07:58:34.015Z,3.42
2023-05-07T08:01:25.246Z,2.80
2023-05-07T08:04:14.784Z,3.20
2023-05-07T08:07:02.477Z,3.25
2023-05-07T08:10:22.540Z,3.20
2023-05-07T08:13:48.383Z,3.60
2023-05-07T08:21:26.617Z,3.00
2023-05-07T08:24:29.804Z,2.80
2023-05-07T08:27:55.862Z,2.50
2023-05-07T08:30:42.419Z,3.67
2023-05-07T08:33:29.248Z,3.15
2023-05-07T08:36:16.406Z,3.55
2023-05-07T08:39:02.170Z,3.97
2023-05-07T08:41:53.389Z,4.05
2023-05-07T08:44:41.056Z,3.42
2023-05-07T08:47:36.539Z,3.90
2023-05-07T08:50:23.005Z,3.40
2023-05-07T08:53:10.600Z,3.53
2023-05-07T08:55:56.896Z,3.45
2023-05-07T08:58:45.535Z,3.65
2023-05-07T09:01:31.891Z,3.40
2023-05-07T09:04:18.532Z,4.40
2023-05-07T09:07:06.792Z,3.45
2023-05-07T09:09:58.166Z,3.85
2023-05-07T09:16:23.441Z,2.88
2023-05-07T09:19:10.262Z,3.20
2023-05-07T09:22:02.169Z,3.40
2023-05-07T09:24:52.562Z,3.08
2023-05-07T09:27:43.790Z,3.35
2023-05-07T09:30:34.913Z,2.97
2023-05-07T09:33:28.659Z,2.83
2023-05-07T09:36:15.900Z,2.25
2023-05-07T09:39:02.948Z,2.95
2023-05-07T09:41:50.634Z,3.28
2023-05-07T09:44:45.527Z,2.80
2023-05-07T09:47:43.043Z,2.70
2023-05-07T09:50:33.161Z,3.10
2023-05-07T09:53:20.835Z,3.58
2023-05-07T09:56:07.191Z,2.90
2023-05-07T09:58:55.541Z,3.05
2023-05-07T10:01:46.368Z,3.80
2023-05-07T10:04:33.993Z,2.58
2023-05-07T10:07:21.512Z,2.45
2023-05-07T10:13:00.389Z,3.50
2023-05-07T10:15:52.674Z,3.15
2023-05-07T10:18:40.571Z,2.80
2023-05-07T10:21:40.388Z,4.03
2023-05-07T10:24:35.388Z,2.60
2023-05-07T10:27:25.978Z,2.60
2023-05-07T10:30:39.910Z,3.30
2023-05-07T10:33:30.928Z,2.65
2023-05-07T10:36:19.700Z,2.40
2023-05-07T10:39:07.967Z,2.85
2023-05-07T10:41:55.408Z,2.30
2023-05-07T10:44:41.854Z,2.00
2023-05-07T10:47:33.444Z,1.73
2023-05-07T10:50:22.555Z,2.80
2023-05-07T10:53:20.973Z,2.20
2023-05-07T10:56:20.217Z,2.38
2023-05-07T10:59:28.949Z,2.58
2023-05-07T11:02:17.386Z,3.30
2023-05-07T11:05:24.577Z,3.53
2023-05-07T11:08:52.630Z,2.97
2023-05-07T11:11:54.428Z,2.50
2023-05-07T11:14:47.171Z,2.13
2023-05-07T11:17:58.253Z,3.28
2023-05-07T11:21:00.266Z,3.65
2023-05-07T11:24:11.345Z,3.08
2023-05-07T11:27:09.335Z,2.83
2023-05-07T11:29:57.408Z,2.40
2023-05-07T11:32:43.925Z,2.72
2023-05-07T11:35:31.431Z,2.95
2023-05-07T11:38:22.023Z,2.38
2023-05-07T11:41:10.012Z,2.97
2023-05-07T11:44:00.669Z,2.60
2023-05-07T11:46:47.148Z,2.15
2023-05-07T11:49:34.155Z,2.20
2023-05-07T11:52:25.173Z,2.28
2023-05-07T11:55:15.474Z,2.30
2023-05-07T11:58:01.383Z,2.20
2023-05-07T12:00:52.516Z,3.15
2023-05-07T12:03:44.068Z,2.50
2023-05-07T12:06:31.419Z,2.22
2023-05-07T12:09:22.214Z,2.33
2023-05-07T12:12:21.204Z,2.42
2023-05-07T12:15:08.462Z,1.90
2023-05-07T12:17:58.721Z,2.53
2023-05-07T12:20:51.998Z,2.50
2023-05-07T12:23:49.855Z,2.10
2023-05-07T12:26:44.607Z,2.70
2023-05-07T12:29:34.332Z,2.20
2023-05-07T12:32:22.502Z,2.03
2023-05-07T12:35:09.275Z,1.67
2023-05-07T12:38:05.503Z,2.47
2023-05-07T12:40:55.687Z,1.70
2023-05-07T12:43:45.488Z,6.70
2023-05-07T12:46:32.294Z,3.28
2023-05-07T12:49:23.770Z,2.90
2023-05-07T12:52:18.454Z,2.22
2023-05-07T12:55:15.451Z,2.53
2023-05-07T12:58:11.461Z,1.55
2023-05-07T13:01:01.664Z,2.20
2023-05-07T13:03:51.713Z,1.85
2023-05-07T13:06:48.687Z,2.20
2023-05-07T13:09:35.138Z,1.60
2023-05-07T13:12:21.875Z,1.75
2023-05-07T13:15:10.848Z,4.47
2023-05-07T13:20:44.804Z,3.50
2023-05-07T13:23:33.207Z,2.35
2023-05-07T13:29:11.505Z,1.85
2023-05-07T13:32:01.365Z,1.40
2023-05-07T13:34:47.602Z,1.63
2023-05-07T13:37:33.607Z,1.80
2023-05-07T13:40:22.898Z,1.40
2023-05-07T13:43:08.916Z,1.65
2023-05-07T13:45:55.492Z,1.45
2023-05-07T13:48:41.642Z,1.25
2023-05-07T13:51:27.437Z,1.30
2023-05-07T13:54:13.366Z,2.00
2023-05-07T13:56:59.444Z,1.80
2023-05-07T13:59:45.309Z,1.50
2023-05-07T14:02:34.773Z,1.75
2023-05-07T14:05:20.997Z,1.60
2023-05-07T14:08:08.917Z,1.23
2023-05-07T14:10:55.564Z,1.10
2023-05-07T14:13:41.558Z,1.40
2023-05-07T14:16:28.552Z,1.30
2023-05-07T14:19:14.917Z,1.17
2023-05-07T14:22:03.597Z,1.23
2023-05-07T14:27:52.567Z,1.23
2023-05-07T14:30:38.249Z,1.20
2023-05-07T14:33:24.169Z,1.38
2023-05-07T14:36:10.250Z,1.33
2023-05-07T14:38:56.750Z,1.40
2023-05-07T14:41:42.417Z,1.63
2023-05-07T14:44:28.476Z,1.42
2023-05-07T14:47:15.841Z,1.27
2023-05-07T14:50:02.713Z,1.30
2023-05-07T14:52:48.875Z,1.85
2023-05-07T14:55:38.253Z,1.50
2023-05-07T14:58:26.588Z,1.10
2023-05-07T15:01:12.408Z,1.40
2023-05-07T15:03:58.268Z,1.48
2023-05-07T15:06:43.866Z,1.25
2023-05-07T15:09:30.823Z,1.50
2023-05-07T15:12:17.206Z,1.60
2023-05-07T15:15:03.717Z,1.33
2023-05-07T15:17:49.347Z,1.15
2023-05-07T15:20:36.561Z,1.27
2023-05-07T15:28:14.278Z,1.70
2023-05-07T15:31:02.325Z,2.90
2023-05-07T15:33:53.130Z,3.72
2023-05-07T15:36:38.831Z,2.70
2023-05-07T15:39:27.850Z,2.20
2023-05-07T15:42:21.132Z,2.38
2023-05-07T15:45:08.174Z,2.00
2023-05-07T15:47:54.319Z,3.30
2023-05-07T15:50:40.549Z,2.25
2023-05-07T15:53:26.837Z,2.45
2023-05-07T15:56:12.953Z,1.80
2023-05-07T15:59:02.526Z,1.52
2023-05-07T16:01:51.739Z,5.28
2023-05-07T16:04:42.861Z,5.70
2023-05-07T16:07:33.250Z,3.97
2023-05-07T16:10:23.750Z,3.00
2023-05-07T16:13:09.864Z,3.00
2023-05-07T16:16:00.044Z,3.10
2023-05-07T16:18:46.444Z,2.35
2023-05-07T16:21:33.668Z,2.13
2023-05-07T16:24:24.041Z,2.15
2023-05-07T16:27:10.100Z,1.73
2023-05-07T16:29:58.620Z,2.10
2023-05-07T16:32:44.576Z,2.33
2023-05-07T16:35:32.353Z,2.08
2023-05-07T16:38:18.543Z,2.90
2023-05-07T16:41:06.159Z,1.98
2023-05-07T16:44:02.014Z,2.25
2023-05-07T16:46:56.961Z,2.70
2023-05-07T16:49:43.275Z,2.25
2023-05-07T16:52:32.636Z,2.80
2023-05-07T16:55:21.132Z,2.38
2023-05-07T16:58:09.216Z,2.30
2023-05-07T17:00:54.902Z,1.95
2023-05-07T17:03:40.753Z,2.50
2023-05-07T17:06:27.155Z,2.10
2023-05-07T17:09:12.739Z,2.40
2023-05-07T17:11:58.347Z,1.70
2023-05-07T17:14:43.990Z,1.77
2023-05-07T17:17:32.449Z,1.23
2023-05-07T17:20:18.043Z,0.93
2023-05-07T17:23:04.288Z,0.80
2023-05-07T17:25:59.688Z,0.70
2023-05-07T17:28:45.929Z,1.00
2023-05-07T17:31:32.168Z,0.75
2023-05-07T17:34:18.135Z,1.17
2023-05-07T17:37:19.456Z,0.90
2023-05-07T17:40:09.462Z,0.70
2023-05-07T17:42:57.477Z,0.88
2023-05-07T17:45:50.280Z,0.70
2023-05-07T17:48:43.720Z,0.80
2023-05-07T17:51:45.937Z,0.90
2023-05-07T17:54:41.355Z,1.10
2023-05-07T17:57:32.917Z,0.98
2023-05-07T18:00:26.265Z,1.40
2023-05-07T18:03:13.541Z,1.23
2023-05-07T18:06:02.254Z,1.20
2023-05-07T18:08:52.175Z,1.30
2023-05-07T18:11:38.131Z,1.40
2023-05-07T18:17:13.170Z,1.55
2023-05-07T18:19:59.144Z,1.73
2023-05-07T18:22:47.396Z,1.50
2023-05-07T18:25:33.680Z,1.83
2023-05-07T18:28:22.180Z,1.75
2023-05-07T18:31:09.508Z,1.73
2023-05-07T18:33:56.171Z,1.70
2023-05-07T18:36:42.379Z,1.40
2023-05-07T18:39:29.375Z,1.10
2023-05-07T18:42:16.009Z,1.05
2023-05-07T18:45:03.286Z,1.20
2023-05-07T18:47:49.279Z,1.38
2023-05-07T18:50:38.065Z,1.20
2023-05-07T18:53:26.594Z,1.10
2023-05-07T18:56:18.055Z,1.30
2023-05-07T18:59:17.466Z,1.13
2023-05-07T19:02:07.158Z,1.08
2023-05-07T19:04:53.471Z,1.10
2023-05-07T19:07:39.945Z,1.40
2023-05-07T19:10:29.943Z,1.10
2023-05-07T19:13:16.045Z,1.05
2023-05-07T19:16:02.150Z,1.40
2023-05-07T19:18:48.545Z,1.50
2023-05-07T19:21:34.601Z,1.20
2023-05-07T19:24:20.688Z,1.13
2023-05-07T19:27:09.958Z,1.25
2023-05-07T19:30:04.868Z,1.30
2023-05-07T19:32:57.075Z,1.17
2023-05-07T19:35:47.666Z,1.38
2023-05-07T19:38:33.591Z,1.13
2023-05-07T19:41:22.057Z,1.00
2023-05-07T19:44:08.854Z,1.35
2023-05-07T19:46:54.780Z,1.38
2023-05-07T19:49:41.206Z,1.20
2023-05-07T19:52:29.267Z,1.08
2023-05-07T19:55:16.154Z,1.20
2023-05-07T19:58:02.415Z,1.30
2023-05-07T20:00:50.989Z,1.45
2023-05-07T20:03:37.359Z,1.20
2023-05-07T20:06:24.101Z,1.27
2023-05-07T20:09:12.959Z,1.40
2023-05-07T20:11:58.944Z,1.40
2023-05-07T20:14:47.279Z,1.30
2023-05-07T20:17:33.438Z,1.40
2023-05-07T20:20:21.912Z,1.15
2023-05-07T20:23:08.704Z,1.45
2023-05-07T20:25:55.288Z,1.30
2023-05-07T20:28:41.077Z,1.40
2023-05-07T20:31:27.167Z,1.42
2023-05-07T20:34:15.519Z,1.27
2023-05-07T20:37:03.986Z,1.60
2023-05-07T20:39:49.740Z,1.30
2023-05-07T20:42:36.460Z,1.38
2023-05-07T20:45:25.344Z,1.17
2023-05-07T20:48:14.560Z,1.23
2023-05-07T20:51:03.243Z,1.30
2023-05-07T20:53:49.434Z,1.30
2023-05-07T20:56:36.120Z,1.15
2023-05-07T20:59:22.505Z,1.20
2023-05-07T21:02:08.814Z,1.33
2023-05-07T21:04:54.884Z,1.25
2023-05-07T21:07:40.968Z,1.30
2023-05-07T21:10:27.047Z,1.13
2023-05-07T21:13:16.567Z,1.20
2023-05-07T21:16:02.435Z,1.23
2023-05-07T21:18:48.612Z,1.00
2023-05-07T21:21:37.186Z,1.08
2023-05-07T21:24:22.822Z,1.80
2023-05-07T21:27:09.830Z,2.88
2023-05-07T21:30:03.407Z,2.08
2023-05-07T21:32:50.159Z,1.35
2023-05-07T21:35:37.159Z,1.52
2023-05-07T21:38:23.188Z,1.98
2023-05-07T21:41:09.248Z,1.50
2023-05-07T21:43:55.113Z,1.50
2023-05-07T21:46:41.995Z,1.45
2023-05-07T21:49:28.567Z,1.73
2023-05-07T21:52:17.045Z,1.70
2023-05-07T21:55:03.164Z,1.80
2023-05-07T21:58:01.239Z,1.52
2023-05-07T22:00:50.950Z,1.80
2023-05-07T22:03:36.976Z,1.95
2023-05-07T22:06:23.132Z,1.80
2023-05-07T22:09:09.408Z,1.48
2023-05-07T22:11:55.259Z,1.73
2023-05-07T22:14:41.262Z,1.88
2023-05-07T22:17:26.896Z,1.77
2023-05-07T22:20:15.737Z,1.85
2023-05-07T22:23:01.743Z,1.88
2023-05-07T22:25:48.460Z,1.80
2023-05-07T22:28:34.645Z,1.90
2023-05-07T22:31:22.514Z,2.03
2023-05-07T22:34:08.509Z,1.98
2023-05-07T22:36:54.144Z,1.85
2023-05-07T22:39:40.859Z,1.40
2023-05-07T22:42:26.930Z,1.42
2023-05-07T22:45:14.477Z,1.52
2023-05-07T22:48:00.350Z,1.40
2023-05-07T22:50:46.417Z,1.35
2023-05-07T22:53:32.134Z,1.73
2023-05-07T22:56:18.813Z,0.98
2023-05-07T22:59:05.512Z,1.20
2023-05-07T23:01:51.707Z,1.27
2023-05-07T23:04:37.422Z,1.40
2023-05-07T23:07:23.528Z,1.58
2023-05-07T23:10:09.997Z,1.35
2023-05-07T23:12:56.212Z,1.45
2023-05-07T23:15:42.974Z,1.40
2023-05-07T23:18:30.544Z,1.48
2023-05-07T23:21:16.361Z,1.42
2023-05-07T23:24:02.199Z,1.95
2023-05-07T23:26:47.934Z,1.63
2023-05-07T23:29:34.085Z,1.50
2023-05-07T23:32:23.156Z,1.52
2023-05-07T23:35:12.037Z,1.75
2023-05-07T23:37:58.879Z,1.83
2023-05-07T23:40:44.511Z,2.08
2023-05-07T23:43:30.055Z,1.75
2023-05-07T23:46:15.842Z,1.75
2023-05-07T23:49:01.838Z,1.52
2023-05-07T23:51:47.531Z,1.60
2023-05-07T23:54:33.468Z,1.88
2023-05-07T23:57:19.351Z,1.73
